createdAt,value
2023-05-09T00:01:59.317Z,9
2023-05-09T00:04:47.368Z,9
2023-05-09T00:07:35.035Z,9
2023-05-09T00:10:22.505Z,8.9
2023-05-09T00:13:10.074Z,8.9
2023-05-09T00:15:58.510Z,8.9
2023-05-09T00:18:45.837Z,8.8
2023-05-09T00:21:33.157Z,8.8
2023-05-09T00:24:20.631Z,8.8
2023-05-09T00:27:07.973Z,8.7
2023-05-09T00:29:55.553Z,8.7
2023-05-09T00:32:43.257Z,8.7
2023-05-09T00:35:30.753Z,8.7
2023-05-09T00:38:19.412Z,8.6
2023-05-09T00:41:08.012Z,8.6
2023-05-09T00:43:55.373Z,8.6
2023-05-09T00:46:42.956Z,8.5
2023-05-09T00:49:30.474Z,8.5
2023-05-09T00:52:18.098Z,8.5
2023-05-09T00:55:07.860Z,8.5
2023-05-09T00:57:56.302Z,8.5
2023-05-09T01:00:43.841Z,8.4
2023-05-09T01:03:31.609Z,8.4
2023-05-09T01:06:20.170Z,8.4
2023-05-09T01:09:13.702Z,8.3
2023-05-09T01:12:09.429Z,8.3
2023-05-09T01:15:05.909Z,8.2
2023-05-09T01:18:02.702Z,8.2
2023-05-09T01:20:57.276Z,8.1
2023-05-09T01:23:48.906Z,8.1
2023-05-09T01:26:55.619Z,8.1
2023-05-09T01:30:05.988Z,8
2023-05-09T01:32:56.727Z,8
2023-05-09T01:35:46.260Z,8
2023-05-09T01:38:38.908Z,7.9
2023-05-09T01:41:29.033Z,7.9
2023-05-09T01:44:19.564Z,7.9
2023-05-09T01:47:08.856Z,7.8
2023-05-09T01:49:58.633Z,7.8
2023-05-09T01:52:48.573Z,7.8
2023-05-09T01:55:39.984Z,7.8
2023-05-09T01:58:29.196Z,7.8
2023-05-09T02:01:18.674Z,7.8
2023-05-09T02:04:07.153Z,7.7
2023-05-09T02:06:55.302Z,7.7
2023-05-09T02:09:44.013Z,7.7
2023-05-09T02:12:32.286Z,7.7
2023-05-09T02:15:20.052Z,7.6
2023-05-09T02:18:08.335Z,7.6
2023-05-09T02:20:55.845Z,7.6
2023-05-09T02:23:43.223Z,7.6
2023-05-09T02:26:31.121Z,7.5
2023-05-09T02:29:19.293Z,7.5
2023-05-09T02:32:14.016Z,7.5
2023-05-09T02:35:05.824Z,7.4
2023-05-09T02:37:54.969Z,7.4
2023-05-09T02:40:45.228Z,7.3
2023-05-09T02:43:33.395Z,7.3
2023-05-09T02:46:20.882Z,7.3
2023-05-09T02:49:08.578Z,7.3
2023-05-09T02:51:56.908Z,7.3
2023-05-09T02:54:44.415Z,7.2
2023-05-09T02:57:32.930Z,7.2
2023-05-09T03:00:20.359Z,7.2
2023-05-09T03:03:10.400Z,7.2
2023-05-09T03:05:58.253Z,7.2
2023-05-09T03:08:46.063Z,7.2
2023-05-09T03:11:33.399Z,7.2
2023-05-09T03:14:21.466Z,7.1
2023-05-09T03:17:09.119Z,7
2023-05-09T03:19:56.462Z,7
2023-05-09T03:22:43.768Z,6.9
2023-05-09T03:25:32.981Z,6.9
2023-05-09T03:28:20.332Z,6.9
2023-05-09T03:31:07.885Z,6.9
2023-05-09T03:33:55.262Z,6.9
2023-05-09T03:36:42.839Z,7
2023-05-09T03:39:30.151Z,6.9
2023-05-09T03:42:17.599Z,6.9
2023-05-09T03:45:04.870Z,6.8
2023-05-09T03:47:53.393Z,6.8
2023-05-09T03:50:40.968Z,6.8
2023-05-09T03:53:28.925Z,6.8
2023-05-09T03:56:17.233Z,6.7
2023-05-09T03:59:04.528Z,6.7
2023-05-09T04:01:51.771Z,6.7
2023-05-09T04:04:39.169Z,6.7
2023-05-09T04:07:26.578Z,6.7
2023-05-09T04:10:14.061Z,6.6
2023-05-09T04:13:01.489Z,6.7
2023-05-09T04:15:48.904Z,6.7
2023-05-09T04:18:37.436Z,6.7
2023-05-09T04:21:26.867Z,6.8
2023-05-09T04:24:14.185Z,6.8
2023-05-09T04:27:01.578Z,6.8
2023-05-09T04:29:49.577Z,6.9
2023-05-09T04:32:38.458Z,6.9
2023-05-09T04:35:30.443Z,6.9
2023-05-09T04:38:17.792Z,6.9
2023-05-09T04:41:05.789Z,6.9
2023-05-09T04:43:53.075Z,6.9
2023-05-09T04:46:40.536Z,7
2023-05-09T04:49:28.329Z,7
2023-05-09T04:52:15.643Z,7
2023-05-09T04:55:03.506Z,7.1
2023-05-09T04:57:52.647Z,7.1
2023-05-09T05:00:39.918Z,7.2
2023-05-09T05:03:27.364Z,7.3
2023-05-09T05:06:14.610Z,7.3
2023-05-09T05:09:01.874Z,7.4
2023-05-09T05:11:58.759Z,7.4
2023-05-09T05:14:51.630Z,7.5
2023-05-09T05:17:38.985Z,7.6
2023-05-09T05:20:26.421Z,7.7
2023-05-09T05:23:13.846Z,7.7
2023-05-09T05:26:01.170Z,7.8
2023-05-09T05:28:48.512Z,7.9
2023-05-09T05:31:40.139Z,8
2023-05-09T05:34:27.555Z,8.1
2023-05-09T05:37:14.997Z,8.2
2023-05-09T05:40:02.732Z,8.3
2023-05-09T05:42:52.758Z,8.4
2023-05-09T05:45:40.233Z,8.5
2023-05-09T05:48:27.539Z,8.6
2023-05-09T05:51:15.549Z,8.7
2023-05-09T05:54:03.413Z,8.8
2023-05-09T05:56:51.276Z,8.9
2023-05-09T05:59:38.717Z,9
2023-05-09T06:02:26.134Z,9.1
2023-05-09T06:05:13.829Z,9.2
2023-05-09T06:08:01.629Z,9.3
2023-05-09T06:10:50.778Z,9.4
2023-05-09T06:13:38.244Z,9.5
2023-05-09T06:16:25.609Z,9.5
2023-05-09T06:19:13.367Z,9.6
2023-05-09T06:22:00.717Z,9.7
2023-05-09T06:24:48.361Z,9.8
2023-05-09T06:27:36.621Z,9.9
2023-05-09T06:30:26.830Z,10
2023-05-09T06:33:14.681Z,10
2023-05-09T06:36:02.054Z,10.1
2023-05-09T06:38:50.272Z,10
2023-05-09T06:41:38.190Z,10.3
2023-05-09T06:44:25.518Z,10.4
2023-05-09T06:47:12.869Z,10.5
2023-05-09T06:50:00.292Z,10.6
2023-05-09T06:52:48.505Z,10.7
2023-05-09T06:55:36.672Z,10.8
2023-05-09T06:58:24.575Z,10.9
2023-05-09T07:06:08.661Z,11.1
2023-05-09T07:08:55.925Z,11.2
2023-05-09T07:11:43.452Z,11.3
2023-05-09T07:14:30.955Z,11.5
2023-05-09T07:17:22.734Z,11.6
2023-05-09T07:20:10.699Z,11.7
2023-05-09T07:22:58.208Z,11.7
2023-05-09T07:25:46.990Z,11.8
2023-05-09T07:28:34.424Z,11.8
2023-05-09T07:31:21.833Z,11.9
2023-05-09T07:34:09.287Z,12
2023-05-09T07:36:57.067Z,12.1
2023-05-09T07:39:44.511Z,12.2
2023-05-09T07:42:32.046Z,12.2
2023-05-09T07:45:22.007Z,12.4
2023-05-09T07:48:11.237Z,12.4
2023-05-09T07:50:58.704Z,12.4
2023-05-09T07:53:46.119Z,12.5
2023-05-09T07:56:33.519Z,12.5
2023-05-09T07:59:21.003Z,12.6
2023-05-09T08:02:08.640Z,12.7
2023-05-09T08:04:56.045Z,12.9
2023-05-09T08:07:43.506Z,13
2023-05-09T08:10:31.295Z,13.1
2023-05-09T08:13:19.017Z,13.2
2023-05-09T08:16:07.082Z,13.3
2023-05-09T08:18:54.786Z,13.4
2023-05-09T08:21:42.643Z,13.4
2023-05-09T08:24:30.221Z,13.5
2023-05-09T08:27:17.810Z,13.6
2023-05-09T08:30:05.405Z,13.7
2023-05-09T08:32:53.942Z,13.8
2023-05-09T08:35:41.597Z,13.9
2023-05-09T08:38:29.330Z,14.1
2023-05-09T08:41:16.898Z,14.2
2023-05-09T08:44:10.925Z,14.3
2023-05-09T08:46:58.907Z,14.4
2023-05-09T08:49:48.421Z,14.5
2023-05-09T08:52:38.631Z,14.7
2023-05-09T08:55:26.733Z,14.7
2023-05-09T08:58:14.429Z,14.8
2023-05-09T09:01:04.301Z,14.9
2023-05-09T09:03:52.737Z,15
2023-05-09T09:06:40.837Z,15.1
2023-05-09T09:09:28.595Z,15.3
2023-05-09T09:12:16.857Z,15.4
2023-05-09T09:15:12.904Z,15.4
2023-05-09T09:18:06.102Z,15.6
2023-05-09T09:20:54.794Z,15.7
2023-05-09T09:23:48.653Z,15.7
2023-05-09T09:26:45.469Z,15.9
2023-05-09T09:29:34.476Z,16.1
2023-05-09T09:32:23.285Z,16.2
2023-05-09T09:35:18.723Z,16.5
2023-05-09T09:38:11.568Z,16.7
2023-05-09T09:41:04.064Z,16.8
2023-05-09T09:43:51.704Z,17
2023-05-09T09:46:39.100Z,17.2
2023-05-09T09:49:33.595Z,17.2
2023-05-09T09:52:25.913Z,17.3
2023-05-09T09:55:18.485Z,17.4
2023-05-09T09:58:07.830Z,17.5
2023-05-09T10:01:02.298Z,17.7
2023-05-09T10:03:51.603Z,17.7
2023-05-09T10:06:43.996Z,17.9
2023-05-09T10:09:39.182Z,18.1
2023-05-09T10:12:28.357Z,18.2
2023-05-09T10:15:18.908Z,18.4
2023-05-09T10:18:12.410Z,18.6
2023-05-09T10:21:04.295Z,18.8
2023-05-09T10:24:06.720Z,18.9
2023-05-09T10:26:55.130Z,19
2023-05-09T10:29:54.047Z,19.2
2023-05-09T10:32:49.994Z,19.3
2023-05-09T10:35:44.361Z,19.4
2023-05-09T10:38:33.096Z,19.5
2023-05-09T10:41:22.235Z,19.7
2023-05-09T10:44:10.463Z,19.8
2023-05-09T10:46:58.288Z,19.8
2023-05-09T10:49:47.336Z,19.9
2023-05-09T10:52:35.221Z,20
2023-05-09T10:55:52.059Z,20.1
2023-05-09T10:58:41.294Z,20.3
2023-05-09T11:01:33.456Z,20.4
2023-05-09T11:04:23.803Z,20.5
2023-05-09T11:07:11.496Z,20.7
2023-05-09T11:10:14.811Z,20.7
2023-05-09T11:13:03.413Z,20.8
2023-05-09T11:15:51.106Z,20.9
2023-05-09T11:19:01.383Z,21.3
2023-05-09T11:22:00.618Z,21.3
2023-05-09T11:24:58.868Z,21.3
2023-05-09T11:27:55.161Z,21.1
2023-05-09T11:30:46.256Z,20.8
2023-05-09T11:33:34.320Z,21
2023-05-09T11:36:23.014Z,21.1
2023-05-09T11:39:21.744Z,21.3
2023-05-09T11:42:10.683Z,21.7
2023-05-09T11:44:58.088Z,22
2023-05-09T11:47:51.219Z,22.2
2023-05-09T11:50:39.408Z,22.4
2023-05-09T11:53:36.884Z,22.7
2023-05-09T11:56:31.461Z,22.9
2023-05-09T11:59:25.416Z,22.9
2023-05-09T12:02:19.394Z,23
2023-05-09T12:05:07.385Z,23.1
2023-05-09T12:07:57.568Z,23.2
2023-05-09T12:10:49.591Z,23.2
2023-05-09T12:13:43.404Z,23.5
2023-05-09T12:16:32.477Z,23.6
2023-05-09T12:19:20.116Z,23.8
2023-05-09T12:22:09.101Z,23.8
2023-05-09T12:24:56.517Z,23.9
2023-05-09T12:27:47.093Z,24
2023-05-09T12:30:34.722Z,24
2023-05-09T12:33:22.483Z,24.1
2023-05-09T12:36:10.586Z,24.2
2023-05-09T12:39:11.015Z,24.3
2023-05-09T12:42:20.457Z,24.7
2023-05-09T12:45:08.847Z,25.1
2023-05-09T12:47:57.686Z,25.4
2023-05-09T12:50:47.003Z,25.8
2023-05-09T12:53:35.016Z,25.7
2023-05-09T12:56:25.440Z,25.6
2023-05-09T12:59:18.407Z,25.4
2023-05-09T13:02:07.886Z,25.4
2023-05-09T13:04:55.946Z,25.4
2023-05-09T13:07:55.619Z,25.5
2023-05-09T13:10:43.370Z,25.7
2023-05-09T13:13:31.057Z,25.7
2023-05-09T13:16:18.914Z,25.9
2023-05-09T13:19:06.878Z,26.1
2023-05-09T13:21:55.053Z,26.2
2023-05-09T13:24:42.684Z,26.3
2023-05-09T13:27:30.054Z,26.3
2023-05-09T13:30:18.822Z,26.4
2023-05-09T13:33:23.896Z,26.5
2023-05-09T13:36:12.396Z,26.6
2023-05-09T13:39:00.683Z,26.6
2023-05-09T13:41:48.395Z,26.5
2023-05-09T13:44:37.624Z,26.6
2023-05-09T13:47:25.208Z,26.7
2023-05-09T13:50:13.032Z,26.6
2023-05-09T13:53:00.684Z,26.6
2023-05-09T13:55:48.242Z,26.7
2023-05-09T13:58:35.963Z,26.9
2023-05-09T14:01:23.525Z,27
2023-05-09T14:04:11.221Z,27.1
2023-05-09T14:06:59.021Z,27.1
2023-05-09T14:09:48.161Z,27.2
2023-05-09T14:12:38.683Z,27.1
2023-05-09T14:15:29.378Z,27
2023-05-09T14:18:19.127Z,27.1
2023-05-09T14:21:07.699Z,27.2
2023-05-09T14:23:55.365Z,27.2
2023-05-09T14:26:42.701Z,27.2
2023-05-09T14:29:31.113Z,27.4
2023-05-09T14:32:19.718Z,27.4
2023-05-09T14:35:07.283Z,27.2
2023-05-09T14:37:55.168Z,27
2023-05-09T14:40:42.615Z,27
2023-05-09T14:43:30.284Z,27
2023-05-09T14:46:18.071Z,26.8
2023-05-09T14:49:07.436Z,26.9
2023-05-09T14:51:54.867Z,26.9
2023-05-09T14:54:42.514Z,26.9
2023-05-09T14:57:29.990Z,27
2023-05-09T15:00:21.922Z,26.9
2023-05-09T15:03:10.683Z,26.9
2023-05-09T15:05:58.758Z,26.9
2023-05-09T15:08:46.359Z,26.7
2023-05-09T15:11:46.708Z,26.7
2023-05-09T15:14:35.794Z,26.7
2023-05-09T15:17:24.877Z,26.9
2023-05-09T15:20:12.475Z,26.9
2023-05-09T15:23:00.880Z,27.1
2023-05-09T15:25:48.405Z,27.1
2023-05-09T15:28:35.882Z,26.9
2023-05-09T15:31:24.206Z,27
2023-05-09T15:34:14.407Z,27.2
2023-05-09T15:37:02.554Z,27.2
2023-05-09T15:39:51.058Z,27.2
2023-05-09T15:42:39.343Z,27.4
2023-05-09T15:45:26.812Z,27.5
2023-05-09T15:48:14.146Z,27.5
2023-05-09T15:51:01.537Z,27.1
2023-05-09T15:53:49.130Z,27
2023-05-09T15:56:37.299Z,27
2023-05-09T15:59:24.746Z,26.8
2023-05-09T16:02:12.686Z,26.8
2023-05-09T16:05:00.268Z,26.7
2023-05-09T16:07:47.813Z,26.7
2023-05-09T16:10:37.756Z,26.6
2023-05-09T16:13:25.482Z,26.6
2023-05-09T16:16:14.617Z,26.5
2023-05-09T16:19:02.371Z,26.2
2023-05-09T16:21:51.451Z,25.8
2023-05-09T16:24:39.326Z,25.7
2023-05-09T16:27:26.652Z,25.3
2023-05-09T16:30:14.351Z,25.4
2023-05-09T16:33:02.139Z,25.5
2023-05-09T16:35:49.818Z,25.3
2023-05-09T16:38:38.217Z,25.2
2023-05-09T16:41:25.739Z,25
2023-05-09T16:44:13.362Z,24.9
2023-05-09T16:47:01.014Z,24.7
2023-05-09T16:49:48.796Z,24.7
2023-05-09T16:52:36.638Z,24.6
2023-05-09T16:55:24.033Z,24.7
2023-05-09T16:58:11.615Z,24.9
2023-05-09T17:00:59.038Z,25
2023-05-09T17:03:46.926Z,25
2023-05-09T17:06:34.877Z,24.8
2023-05-09T17:09:22.678Z,24.7
2023-05-09T17:12:10.647Z,24.5
2023-05-09T17:15:02.145Z,24.2
2023-05-09T17:17:51.421Z,24.1
2023-05-09T17:20:40.170Z,23.7
2023-05-09T17:23:27.773Z,23.2
2023-05-09T17:26:15.193Z,22.7
2023-05-09T17:29:02.680Z,22.3
2023-05-09T17:31:51.506Z,21.8
2023-05-09T17:34:39.585Z,21.4
2023-05-09T17:37:27.134Z,21
2023-05-09T17:40:14.999Z,20.7
2023-05-09T17:43:02.657Z,20.3
2023-05-09T17:45:50.282Z,20.1
2023-05-09T17:48:39.011Z,19.9
2023-05-09T17:51:27.153Z,19.8
2023-05-09T17:54:14.686Z,19.6
2023-05-09T17:57:03.675Z,19.4
2023-05-09T17:59:51.838Z,19.3
2023-05-09T18:02:39.424Z,19.1
2023-05-09T18:05:27.137Z,18.9
2023-05-09T18:08:14.907Z,18.8
2023-05-09T18:11:02.560Z,18.7
2023-05-09T18:13:50.119Z,18.6
2023-05-09T18:16:38.666Z,18.5
2023-05-09T18:19:26.352Z,18.4
2023-05-09T18:22:14.142Z,18.3
2023-05-09T18:25:03.823Z,18.2
2023-05-09T18:27:52.245Z,18.1
2023-05-09T18:30:39.974Z,18.1
2023-05-09T18:33:27.444Z,18
2023-05-09T18:36:15.323Z,17.9
2023-05-09T18:39:03.829Z,17.8
2023-05-09T18:41:51.606Z,17.8
2023-05-09T18:44:39.647Z,17.7
2023-05-09T18:47:27.109Z,17.5
2023-05-09T18:50:14.929Z,17.4
2023-05-09T18:53:03.454Z,17.3
2023-05-09T18:55:51.226Z,17.2
2023-05-09T18:58:40.745Z,17.1
2023-05-09T19:01:28.252Z,17
2023-05-09T19:04:15.798Z,17
2023-05-09T19:07:04.021Z,16.9
2023-05-09T19:09:52.477Z,16.9
2023-05-09T19:12:39.929Z,16.8
2023-05-09T19:15:27.386Z,16.7
2023-05-09T19:18:15.115Z,16.7
2023-05-09T19:21:02.561Z,16.6
2023-05-09T19:23:50.757Z,16.5
2023-05-09T19:26:37.214Z,16.4
2023-05-09T19:29:24.642Z,16.4
2023-05-09T19:32:12.138Z,16.4
2023-05-09T19:34:59.527Z,16.3
2023-05-09T19:37:47.093Z,16.2
2023-05-09T19:40:34.462Z,16.1
2023-05-09T19:43:21.839Z,16
2023-05-09T19:46:09.404Z,16.1
2023-05-09T19:48:56.986Z,16
2023-05-09T19:51:44.477Z,16
2023-05-09T19:54:32.145Z,16
2023-05-09T19:57:19.708Z,16
2023-05-09T20:00:07.480Z,15.9
2023-05-09T20:02:56.708Z,15.8
2023-05-09T20:09:03.638Z,15.4
2023-05-09T20:11:51.285Z,15.4
2023-05-09T20:14:41.802Z,15.3
2023-05-09T20:17:30.341Z,15.3
2023-05-09T20:20:18.200Z,15.2
2023-05-09T20:23:05.837Z,15.1
2023-05-09T20:25:53.468Z,15
2023-05-09T20:28:41.339Z,14.9
2023-05-09T20:31:28.814Z,14.8
2023-05-09T20:34:17.179Z,14.8
2023-05-09T20:37:06.324Z,14.7
2023-05-09T20:39:55.042Z,14.6
2023-05-09T20:42:42.554Z,14.6
2023-05-09T20:45:29.930Z,14.5
2023-05-09T20:48:17.702Z,14.4
2023-05-09T20:51:07.812Z,14.4
2023-05-09T20:53:55.496Z,14.3
2023-05-09T20:56:42.970Z,14.3
2023-05-09T20:59:30.338Z,14.3
2023-05-09T21:02:18.168Z,14.3
2023-05-09T21:05:05.654Z,14.3
2023-05-09T21:07:53.481Z,14.2
2023-05-09T21:10:40.866Z,14.1
2023-05-09T21:13:28.407Z,14.1
2023-05-09T21:16:16.250Z,14.1
2023-05-09T21:19:03.536Z,14
2023-05-09T21:21:53.002Z,14
2023-05-09T21:24:40.594Z,14
2023-05-09T21:27:28.503Z,13.9
2023-05-09T21:30:20.988Z,13.8
2023-05-09T21:33:08.739Z,13.8
2023-05-09T21:35:56.331Z,13.8
2023-05-09T21:38:43.962Z,13.7
2023-05-09T21:41:31.377Z,13.7
2023-05-09T21:44:18.902Z,13.6
2023-05-09T21:47:06.346Z,13.5
2023-05-09T21:49:54.817Z,13.5
2023-05-09T21:52:42.240Z,13.5
2023-05-09T21:55:29.801Z,13.4
2023-05-09T21:58:17.315Z,13.4
2023-05-09T22:01:04.766Z,13.4
2023-05-09T22:03:52.270Z,13.3
2023-05-09T22:06:39.776Z,13.3
2023-05-09T22:09:27.410Z,13.3
2023-05-09T22:12:15.037Z,13.2
2023-05-09T22:15:02.470Z,13.2
2023-05-09T22:17:51.452Z,13.2
2023-05-09T22:20:39.053Z,13.2
2023-05-09T22:23:26.371Z,13.1
2023-05-09T22:26:13.891Z,13
2023-05-09T22:29:01.423Z,13
2023-05-09T22:31:48.820Z,12.9
2023-05-09T22:34:36.412Z,12.9
2023-05-09T22:37:23.863Z,12.9
2023-05-09T22:40:11.939Z,12.9
2023-05-09T22:42:59.564Z,12.9
2023-05-09T22:45:47.113Z,12.9
2023-05-09T22:48:34.713Z,12.8
2023-05-09T22:51:22.042Z,12.8
2023-05-09T22:54:09.474Z,12.8
2023-05-09T22:56:56.808Z,12.7
2023-05-09T22:59:44.068Z,12.6
2023-05-09T23:02:31.652Z,12.6
2023-05-09T23:05:19.201Z,12.6
2023-05-09T23:08:06.530Z,12.5
2023-05-09T23:10:53.848Z,12.5
2023-05-09T23:13:41.075Z,12.5
2023-05-09T23:16:28.318Z,12.4
2023-05-09T23:19:16.192Z,12.3
2023-05-09T23:22:04.297Z,12.3
2023-05-09T23:24:51.950Z,12.2
2023-05-09T23:27:39.434Z,12.2
2023-05-09T23:30:29.384Z,12.1
2023-05-09T23:33:16.780Z,12
2023-05-09T23:36:04.207Z,11.9
2023-05-09T23:38:52.306Z,11.7
2023-05-09T23:41:40.394Z,11.7
2023-05-09T23:44:28.240Z,11.6
2023-05-09T23:47:15.944Z,11.5
2023-05-09T23:50:03.573Z,11.5
2023-05-09T23:52:52.965Z,11.4
2023-05-09T23:55:40.332Z,11.4
2023-05-09T23:58:28.013Z,11.3
